createdAt,value
2023-04-25T00:01:06.932Z,8.00
2023-04-25T00:03:36.456Z,7.90
2023-04-25T00:06:05.148Z,7.90
2023-04-25T00:08:33.387Z,7.90
2023-04-25T00:11:02.849Z,7.90
2023-04-25T00:13:31.079Z,7.90
2023-04-25T00:15:59.328Z,7.80
2023-04-25T00:18:29.653Z,7.80
2023-04-25T00:20:57.968Z,7.70
2023-04-25T00:23:26.118Z,7.70
2023-04-25T00:25:54.093Z,7.70
2023-04-25T00:28:23.768Z,7.70
2023-04-25T00:30:52.650Z,7.60
2023-04-25T00:33:20.838Z,7.60
2023-04-25T00:35:49.040Z,7.60
2023-04-25T00:38:17.599Z,7.60
2023-04-25T00:40:45.754Z,7.50
2023-04-25T00:43:13.899Z,7.50
2023-04-25T00:45:45.714Z,7.50
2023-04-25T00:48:15.772Z,7.40
2023-04-25T00:50:44.772Z,7.40
2023-04-25T00:53:12.935Z,7.40
2023-04-25T00:55:41.105Z,7.30
2023-04-25T00:58:09.158Z,7.30
2023-04-25T01:00:39.997Z,7.30
2023-04-25T01:03:11.067Z,7.30
2023-04-25T01:05:39.457Z,7.30
2023-04-25T01:08:07.454Z,7.20
2023-04-25T01:10:35.686Z,7.20
2023-04-25T01:13:03.945Z,7.20
2023-04-25T01:15:32.531Z,7.20
2023-04-25T01:18:02.230Z,7.10
2023-04-25T01:20:33.769Z,7.10
2023-04-25T01:23:04.643Z,7.10
2023-04-25T01:25:33.013Z,7.10
2023-04-25T01:28:01.058Z,7.00
2023-04-25T01:30:30.976Z,7.10
2023-04-25T01:32:59.820Z,7.10
2023-04-25T01:35:31.002Z,7.10
2023-04-25T01:37:59.510Z,7.00
2023-04-25T01:40:30.035Z,7.00
2023-04-25T01:42:59.127Z,6.90
2023-04-25T01:45:27.209Z,6.90
2023-04-25T01:47:55.548Z,6.90
2023-04-25T01:50:23.961Z,6.90
2023-04-25T01:52:52.511Z,6.90
2023-04-25T01:55:21.378Z,6.80
2023-04-25T01:58:10.151Z,6.80
2023-04-25T02:01:07.190Z,6.80
2023-04-25T02:03:43.443Z,6.80
2023-04-25T02:06:23.060Z,6.80
2023-04-25T02:08:53.582Z,6.80
2023-04-25T02:11:21.618Z,6.70
2023-04-25T02:14:20.124Z,6.80
2023-04-25T02:16:55.075Z,6.80
2023-04-25T02:19:23.335Z,6.80
2023-04-25T02:21:51.380Z,6.80
2023-04-25T02:24:19.471Z,6.70
2023-04-25T02:26:47.895Z,6.70
2023-04-25T02:29:16.199Z,6.60
2023-04-25T02:31:45.786Z,6.60
2023-04-25T02:34:14.096Z,6.60
2023-04-25T02:36:42.080Z,6.50
2023-04-25T02:39:11.245Z,6.40
2023-04-25T02:41:39.615Z,6.30
2023-04-25T02:44:07.612Z,6.30
2023-04-25T02:46:39.507Z,6.20
2023-04-25T02:49:11.485Z,6.20
2023-04-25T02:51:39.558Z,6.20
2023-04-25T02:54:08.190Z,6.20
2023-04-25T02:56:41.328Z,6.20
2023-04-25T02:59:14.470Z,6.20
2023-04-25T03:01:42.911Z,6.20
2023-04-25T03:04:12.336Z,6.20
2023-04-25T03:06:40.890Z,6.10
2023-04-25T03:09:08.924Z,6.00
2023-04-25T03:11:37.125Z,6.10
2023-04-25T03:14:07.482Z,6.10
2023-04-25T03:16:36.108Z,6.10
2023-04-25T03:19:06.444Z,6.00
2023-04-25T03:21:37.670Z,6.10
2023-04-25T03:24:06.758Z,6.10
2023-04-25T03:26:34.788Z,6.10
2023-04-25T03:29:03.447Z,6.10
2023-04-25T03:31:32.097Z,6.20
2023-04-25T03:34:01.394Z,6.20
2023-04-25T03:36:29.605Z,6.20
2023-04-25T03:38:59.056Z,6.20
2023-04-25T03:41:27.409Z,6.20
2023-04-25T03:44:03.644Z,6.20
2023-04-25T03:46:31.886Z,6.20
2023-04-25T03:49:00.254Z,6.20
2023-04-25T03:51:41.235Z,6.20
2023-04-25T03:54:10.906Z,6.20
2023-04-25T03:56:56.339Z,6.20
2023-04-25T03:59:28.303Z,6.10
2023-04-25T04:01:56.664Z,6.00
2023-04-25T04:04:25.242Z,5.90
2023-04-25T04:06:53.983Z,5.80
2023-04-25T04:09:32.534Z,5.80
2023-04-25T04:12:03.621Z,5.70
2023-04-25T04:14:33.388Z,5.60
2023-04-25T04:17:01.528Z,5.50
2023-04-25T04:19:30.805Z,5.50
2023-04-25T04:22:14.565Z,5.50
2023-04-25T04:24:45.074Z,5.40
2023-04-25T04:27:16.009Z,5.30
2023-04-25T04:29:54.356Z,5.30
2023-04-25T04:32:35.596Z,5.30
2023-04-25T04:35:05.664Z,5.30
2023-04-25T04:37:34.753Z,5.20
2023-04-25T04:40:06.642Z,5.30
2023-04-25T04:42:43.447Z,5.30
2023-04-25T04:45:30.189Z,5.30
2023-04-25T04:48:30.058Z,5.40
2023-04-25T04:51:14.632Z,5.50
2023-04-25T04:54:03.321Z,5.60
2023-04-25T04:56:52.150Z,5.70
2023-04-25T04:59:43.023Z,5.70
2023-04-25T05:02:40.706Z,5.80
2023-04-25T05:05:25.419Z,5.80
2023-04-25T05:08:06.767Z,6.00
2023-04-25T05:10:54.475Z,6.00
2023-04-25T05:13:47.605Z,6.10
2023-04-25T05:16:39.287Z,6.20
2023-04-25T05:19:27.880Z,6.10
2023-04-25T05:22:14.390Z,6.10
2023-04-25T05:24:56.819Z,6.20
2023-04-25T05:27:45.110Z,6.20
2023-04-25T05:30:41.365Z,6.20
2023-04-25T05:33:21.972Z,6.20
2023-04-25T05:35:50.360Z,6.30
2023-04-25T05:38:18.529Z,6.30
2023-04-25T05:41:05.114Z,6.20
2023-04-25T05:43:58.352Z,6.20
2023-04-25T05:46:57.453Z,6.20
2023-04-25T05:49:46.018Z,6.10
2023-04-25T05:52:42.582Z,6.10
2023-04-25T06:01:09.949Z,6.10
2023-04-25T06:03:40.375Z,6.10
2023-04-25T06:06:08.892Z,6.10
2023-04-25T06:08:37.408Z,6.20
2023-04-25T06:11:05.722Z,6.40
2023-04-25T06:13:33.782Z,6.60
2023-04-25T06:16:02.238Z,6.90
2023-04-25T06:18:30.405Z,7.10
2023-04-25T06:20:59.978Z,7.50
2023-04-25T06:23:28.189Z,7.70
2023-04-25T06:26:08.336Z,7.90
2023-04-25T06:28:39.264Z,8.20
2023-04-25T06:31:07.365Z,8.30
2023-04-25T06:33:35.628Z,8.50
2023-04-25T06:36:06.731Z,8.70
2023-04-25T06:38:35.763Z,8.70
2023-04-25T06:41:04.405Z,8.70
2023-04-25T06:43:36.154Z,8.90
2023-04-25T06:46:13.132Z,9.10
2023-04-25T06:48:45.973Z,9.40
2023-04-25T06:51:15.524Z,9.60
2023-04-25T06:53:44.393Z,9.90
2023-04-25T06:59:15.521Z,10.30
2023-04-25T07:01:45.432Z,10.40
2023-04-25T07:04:18.516Z,10.50
2023-04-25T07:07:08.674Z,10.60
2023-04-25T07:09:51.650Z,10.70
2023-04-25T07:12:19.653Z,10.70
2023-04-25T07:14:48.025Z,10.60
2023-04-25T07:17:16.315Z,10.50
2023-04-25T07:19:44.875Z,10.40
2023-04-25T07:22:14.505Z,10.40
2023-04-25T07:24:45.483Z,10.40
2023-04-25T07:27:15.168Z,10.40
2023-04-25T07:29:56.979Z,10.50
2023-04-25T07:32:25.897Z,10.40
2023-04-25T07:34:54.083Z,10.40
2023-04-25T07:37:23.730Z,10.40
2023-04-25T07:43:06.409Z,10.50
2023-04-25T07:45:41.202Z,10.60
2023-04-25T07:48:09.298Z,10.90
2023-04-25T07:50:39.603Z,11.20
2023-04-25T07:53:09.852Z,11.30
2023-04-25T07:55:45.383Z,11.40
2023-04-25T07:58:22.347Z,11.50
2023-04-25T08:00:55.030Z,11.80
2023-04-25T08:03:39.224Z,12.20
2023-04-25T08:06:13.626Z,12.60
2023-04-25T08:08:54.271Z,12.80
2023-04-25T08:11:26.127Z,12.80
2023-04-25T08:13:54.360Z,12.60
2023-04-25T08:16:23.958Z,12.50
2023-04-25T08:18:53.426Z,12.50
2023-04-25T08:21:22.004Z,12.50
2023-04-25T08:23:50.328Z,12.20
2023-04-25T08:26:33.216Z,12.00
2023-04-25T08:29:01.458Z,11.70
2023-04-25T08:31:30.149Z,11.30
2023-04-25T08:34:01.676Z,11.00
2023-04-25T08:36:39.702Z,10.70
2023-04-25T08:39:25.707Z,10.60
2023-04-25T08:42:33.338Z,10.50
2023-04-25T08:45:07.083Z,10.50
2023-04-25T08:47:40.976Z,10.50
2023-04-25T08:50:09.613Z,10.50
2023-04-25T08:52:45.656Z,10.40
2023-04-25T08:55:15.265Z,10.60
2023-04-25T08:57:46.779Z,10.70
2023-04-25T09:00:15.783Z,10.80
2023-04-25T09:02:45.927Z,11.00
2023-04-25T09:05:16.079Z,11.30
2023-04-25T09:07:46.402Z,11.80
2023-04-25T09:10:15.749Z,12.10
2023-04-25T09:12:45.451Z,12.30
2023-04-25T09:15:20.583Z,12.70
2023-04-25T09:18:29.883Z,13.40
2023-04-25T09:21:13.093Z,14.40
2023-04-25T09:23:45.699Z,15.60
2023-04-25T09:26:17.866Z,16.40
2023-04-25T09:28:49.155Z,16.90
2023-04-25T09:31:25.298Z,17.10
2023-04-25T09:34:02.512Z,17.30
2023-04-25T09:36:37.105Z,17.30
2023-04-25T09:39:30.894Z,17.50
2023-04-25T09:42:13.190Z,16.70
2023-04-25T09:44:46.550Z,15.70
2023-04-25T09:47:17.408Z,14.60
2023-04-25T09:49:46.706Z,13.80
2023-04-25T09:52:18.012Z,13.50
2023-04-25T09:55:15.046Z,13.40
2023-04-25T09:57:43.355Z,13.80
2023-04-25T10:00:14.745Z,14.60
2023-04-25T10:02:45.838Z,15.50
2023-04-25T10:05:25.902Z,16.00
2023-04-25T10:07:55.968Z,16.30
2023-04-25T10:10:26.756Z,16.50
2023-04-25T10:12:56.062Z,16.40
2023-04-25T10:15:26.297Z,16.70
2023-04-25T10:17:54.719Z,17.20
2023-04-25T10:20:24.298Z,18.10
2023-04-25T10:22:57.293Z,19.20
2023-04-25T10:25:25.990Z,20.30
2023-04-25T10:27:54.680Z,21.80
2023-04-25T10:30:22.675Z,22.50
2023-04-25T10:32:52.785Z,22.60
2023-04-25T10:35:26.217Z,22.30
2023-04-25T10:38:02.091Z,21.70
2023-04-25T10:40:30.946Z,20.60
2023-04-25T10:43:36.178Z,20.00
2023-04-25T10:46:04.090Z,19.10
2023-04-25T10:48:36.515Z,19.50
2023-04-25T10:51:11.514Z,21.00
2023-04-25T10:53:39.830Z,22.30
2023-04-25T10:56:14.576Z,23.30
2023-04-25T10:58:46.346Z,25.10
2023-04-25T11:01:15.629Z,26.80
2023-04-25T11:03:46.336Z,28.70
2023-04-25T11:06:24.634Z,29.20
2023-04-25T11:08:53.658Z,29.20
2023-04-25T11:11:22.241Z,29.60
2023-04-25T11:13:51.643Z,30.40
2023-04-25T11:16:27.569Z,31.00
2023-04-25T11:18:59.838Z,31.40
2023-04-25T11:21:28.671Z,31.60
2023-04-25T11:23:58.185Z,30.60
2023-04-25T11:26:27.345Z,28.90
2023-04-25T11:29:00.115Z,26.20
2023-04-25T11:31:28.643Z,24.10
2023-04-25T11:33:59.430Z,21.90
2023-04-25T11:36:28.519Z,20.20
2023-04-25T11:38:57.017Z,18.70
2023-04-25T11:41:25.342Z,17.20
2023-04-25T11:43:55.553Z,16.00
2023-04-25T11:46:24.378Z,14.90
2023-04-25T11:48:53.856Z,14.10
2023-04-25T11:51:23.552Z,13.40
2023-04-25T11:53:51.631Z,13.10
2023-04-25T11:56:23.747Z,12.90
2023-04-25T11:58:59.711Z,12.70
2023-04-25T12:01:43.444Z,12.90
2023-04-25T12:04:16.097Z,13.20
2023-04-25T12:06:48.981Z,13.70
2023-04-25T12:09:19.852Z,14.50
2023-04-25T12:11:49.940Z,15.30
2023-04-25T12:14:25.882Z,15.50
2023-04-25T12:16:54.106Z,15.40
2023-04-25T12:19:22.753Z,15.20
2023-04-25T12:24:26.797Z,14.70
2023-04-25T12:26:56.027Z,14.70
2023-04-25T12:29:29.473Z,14.70
2023-04-25T12:32:00.883Z,14.80
2023-04-25T12:34:29.192Z,14.90
2023-04-25T12:36:58.625Z,15.30
2023-04-25T12:39:27.226Z,16.50
2023-04-25T12:41:55.629Z,17.90
2023-04-25T12:44:23.856Z,19.60
2023-04-25T12:46:52.230Z,22.00
2023-04-25T12:49:20.563Z,24.60
2023-04-25T12:51:49.004Z,27.60
2023-04-25T12:54:19.080Z,30.30
2023-04-25T12:56:47.260Z,32.10
2023-04-25T12:59:15.518Z,33.60
2023-04-25T13:01:43.974Z,34.40
2023-04-25T13:04:12.173Z,35.70
2023-04-25T13:06:40.516Z,35.20
2023-04-25T13:09:09.555Z,33.60
2023-04-25T13:11:38.960Z,30.80
2023-04-25T13:14:07.661Z,27.10
2023-04-25T13:16:35.882Z,24.10
2023-04-25T13:19:04.153Z,21.70
2023-04-25T13:21:33.550Z,19.60
2023-04-25T13:24:01.836Z,18.10
2023-04-25T13:26:29.929Z,17.10
2023-04-25T13:28:59.356Z,16.40
2023-04-25T13:31:27.524Z,16.80
2023-04-25T13:33:55.619Z,18.00
2023-04-25T13:36:23.600Z,19.30
2023-04-25T13:38:52.049Z,21.40
2023-04-25T13:41:20.252Z,23.90
2023-04-25T13:43:49.837Z,26.80
2023-04-25T13:48:52.781Z,29.70
2023-04-25T13:51:24.001Z,30.10
2023-04-25T13:53:52.297Z,30.30
2023-04-25T13:56:21.576Z,29.90
2023-04-25T13:58:49.575Z,29.30
2023-04-25T14:01:18.970Z,28.80
2023-04-25T14:03:47.462Z,28.20
2023-04-25T14:06:22.098Z,27.60
2023-04-25T14:08:50.308Z,27.00
2023-04-25T14:11:19.247Z,25.90
2023-04-25T14:13:48.618Z,24.80
2023-04-25T14:16:17.830Z,23.50
2023-04-25T14:18:47.401Z,22.30
2023-04-25T14:21:15.440Z,21.40
2023-04-25T14:23:43.657Z,20.40
2023-04-25T14:28:54.479Z,18.80
2023-04-25T14:31:22.748Z,18.30
2023-04-25T14:33:52.516Z,17.80
2023-04-25T14:36:21.337Z,17.30
2023-04-25T14:38:49.428Z,16.80
2023-04-25T14:41:17.720Z,16.10
2023-04-25T14:43:46.050Z,15.50
2023-04-25T14:46:14.483Z,14.80
2023-04-25T14:48:42.850Z,14.30
2023-04-25T14:51:12.265Z,13.70
2023-04-25T14:53:40.655Z,13.20
2023-04-25T14:56:09.939Z,12.80
2023-04-25T14:58:38.607Z,12.50
2023-04-25T15:01:07.784Z,12.20
2023-04-25T15:03:36.349Z,12.10
2023-04-25T15:06:04.643Z,12.00
2023-04-25T15:08:34.471Z,12.10
2023-04-25T15:11:03.333Z,12.20
2023-04-25T15:13:31.406Z,12.50
2023-04-25T15:15:59.663Z,12.60
2023-04-25T15:18:27.927Z,12.60
2023-04-25T15:20:57.208Z,12.70
2023-04-25T15:23:25.985Z,12.70
2023-04-25T15:25:56.907Z,12.60
2023-04-25T15:28:24.930Z,12.50
2023-04-25T15:30:53.157Z,12.30
2023-04-25T15:33:21.339Z,12.00
2023-04-25T15:35:49.396Z,11.70
2023-04-25T15:38:17.576Z,11.50
2023-04-25T15:40:46.572Z,11.50
2023-04-25T15:43:17.290Z,11.70
2023-04-25T15:45:45.631Z,11.80
2023-04-25T15:48:14.292Z,11.90
2023-04-25T15:50:42.887Z,11.80
2023-04-25T15:53:12.312Z,11.80
2023-04-25T15:55:40.917Z,11.70
2023-04-25T15:58:10.712Z,11.60
2023-04-25T16:00:43.463Z,11.50
2023-04-25T16:03:11.661Z,11.50
2023-04-25T16:05:40.882Z,11.40
2023-04-25T16:08:09.304Z,11.40
2023-04-25T16:10:38.179Z,11.40
2023-04-25T16:13:06.303Z,11.40
2023-04-25T16:15:35.497Z,11.50
2023-04-25T16:18:05.471Z,11.60
2023-04-25T16:20:33.761Z,11.50
2023-04-25T16:23:02.143Z,11.50
2023-04-25T16:25:30.205Z,11.40
2023-04-25T16:27:58.472Z,11.20
2023-04-25T16:30:26.969Z,11.20
2023-04-25T16:32:57.107Z,11.20
2023-04-25T16:35:30.530Z,11.10
2023-04-25T16:37:58.653Z,11.20
2023-04-25T16:40:26.943Z,11.00
2023-04-25T16:42:55.167Z,10.90
2023-04-25T16:45:24.339Z,10.80
2023-04-25T16:47:52.435Z,10.70
2023-04-25T16:50:21.412Z,10.60
2023-04-25T16:52:51.175Z,10.60
2023-04-25T16:55:19.503Z,10.70
2023-04-25T16:57:47.710Z,10.80
2023-04-25T17:00:18.171Z,10.90
2023-04-25T17:02:46.349Z,10.80
2023-04-25T17:05:14.627Z,10.80
2023-04-25T17:07:42.681Z,10.70
2023-04-25T17:10:12.468Z,10.60
2023-04-25T17:12:40.744Z,10.50
2023-04-25T17:15:12.427Z,10.40
2023-04-25T17:17:40.840Z,10.30
2023-04-25T17:20:10.716Z,10.20
2023-04-25T17:22:38.901Z,10.00
2023-04-25T17:25:09.256Z,9.80
2023-04-25T17:27:38.777Z,9.60
2023-04-25T17:30:08.350Z,9.50
2023-04-25T17:32:36.838Z,9.30
2023-04-25T17:35:05.798Z,9.20
2023-04-25T17:37:33.992Z,9.10
2023-04-25T17:40:02.241Z,9.00
2023-04-25T17:42:30.453Z,8.90
2023-04-25T17:45:13.074Z,8.90
2023-04-25T17:47:41.809Z,8.80
2023-04-25T17:50:10.425Z,8.60
2023-04-25T17:52:38.688Z,8.50
2023-04-25T17:55:07.687Z,8.50
2023-04-25T17:57:35.768Z,8.40
2023-04-25T18:00:07.753Z,8.30
2023-04-25T18:02:40.406Z,8.20
2023-04-25T18:05:10.819Z,8.20
2023-04-25T18:07:39.309Z,8.10
2023-04-25T18:10:09.049Z,8.00
2023-04-25T18:12:38.233Z,7.90
2023-04-25T18:15:09.391Z,7.90
2023-04-25T18:17:40.376Z,7.80
2023-04-25T18:20:11.899Z,7.70
2023-04-25T18:22:40.365Z,7.60
2023-04-25T18:25:10.149Z,7.50
2023-04-25T18:27:38.981Z,7.40
2023-04-25T18:30:10.508Z,7.30
2023-04-25T18:32:38.940Z,7.20
2023-04-25T18:35:10.003Z,7.20
2023-04-25T18:37:40.172Z,7.10
2023-04-25T18:40:13.602Z,7.10
2023-04-25T18:42:41.999Z,7.10
2023-04-25T18:45:12.667Z,7.10
2023-04-25T18:47:40.938Z,7.10
2023-04-25T18:50:09.935Z,7.00
2023-04-25T18:52:38.399Z,7.00
2023-04-25T18:55:07.387Z,6.90
2023-04-25T18:57:36.049Z,6.80
2023-04-25T19:00:06.714Z,6.80
2023-04-25T19:02:37.918Z,6.70
2023-04-25T19:05:06.915Z,6.60
2023-04-25T19:07:35.019Z,6.50
2023-04-25T19:10:04.179Z,6.40
2023-04-25T19:12:33.429Z,6.40
2023-04-25T19:15:01.677Z,6.30
2023-04-25T19:17:30.600Z,6.30
2023-04-25T19:20:00.140Z,6.20
2023-04-25T19:22:29.613Z,6.10
2023-04-25T19:25:09.116Z,6.10
2023-04-25T19:27:38.934Z,6.10
2023-04-25T19:30:11.278Z,6.00
2023-04-25T19:32:39.824Z,5.90
2023-04-25T19:35:13.441Z,5.90
2023-04-25T19:37:46.912Z,5.90
2023-04-25T19:40:16.757Z,5.90
2023-04-25T19:42:45.504Z,5.80
2023-04-25T19:45:16.778Z,5.80
2023-04-25T19:47:44.896Z,5.70
2023-04-25T19:50:14.461Z,5.70
2023-04-25T19:52:42.876Z,5.70
2023-04-25T19:55:11.465Z,5.60
2023-04-25T19:57:39.578Z,5.60
2023-04-25T20:00:10.889Z,5.60
2023-04-25T20:02:43.453Z,5.50
2023-04-25T20:05:13.161Z,5.50
2023-04-25T20:07:42.951Z,5.50
2023-04-25T20:10:14.075Z,5.50
2023-04-25T20:15:39.600Z,5.40
2023-04-25T20:18:07.733Z,5.30
2023-04-25T20:20:36.877Z,5.30
2023-04-25T20:23:06.920Z,5.30
2023-04-25T20:25:34.980Z,5.30
2023-04-25T20:28:03.136Z,5.30
2023-04-25T20:30:32.133Z,5.40
2023-04-25T20:33:02.214Z,5.50
2023-04-25T20:35:30.425Z,5.60
2023-04-25T20:37:58.454Z,5.70
2023-04-25T20:40:28.008Z,5.80
2023-04-25T20:42:56.565Z,5.80
2023-04-25T20:45:29.968Z,5.90
2023-04-25T20:47:58.389Z,5.90
2023-04-25T20:50:27.071Z,6.00
2023-04-25T20:52:55.252Z,5.90
2023-04-25T20:55:23.288Z,5.90
2023-04-25T20:57:53.252Z,5.90
2023-04-25T21:00:27.402Z,5.90
2023-04-25T21:02:55.568Z,5.80
2023-04-25T21:05:24.536Z,5.90
2023-04-25T21:07:53.376Z,5.80
2023-04-25T21:10:22.037Z,5.90
2023-04-25T21:12:51.840Z,5.80
2023-04-25T21:15:21.380Z,5.80
2023-04-25T21:17:49.761Z,5.70
2023-04-25T21:20:19.133Z,5.70
2023-04-25T21:22:52.705Z,5.60
2023-04-25T21:25:25.222Z,5.60
2023-04-25T21:27:54.372Z,5.70
2023-04-25T21:30:25.237Z,5.70
2023-04-25T21:32:53.938Z,5.70
2023-04-25T21:35:22.939Z,5.70
2023-04-25T21:37:51.724Z,5.70
2023-04-25T21:40:19.914Z,5.70
2023-04-25T21:42:51.543Z,5.70
2023-04-25T21:45:20.061Z,5.70
2023-04-25T21:47:50.639Z,5.70
2023-04-25T21:50:19.563Z,5.80
2023-04-25T21:52:48.172Z,5.80
2023-04-25T21:55:16.513Z,5.80
2023-04-25T22:00:28.581Z,5.70
2023-04-25T22:03:01.963Z,5.60
2023-04-25T22:05:30.153Z,5.60
2023-04-25T22:07:58.562Z,5.50
2023-04-25T22:10:27.069Z,5.50
2023-04-25T22:12:55.822Z,5.40
2023-04-25T22:15:24.354Z,5.40
2023-04-25T22:18:04.357Z,5.30
2023-04-25T22:20:33.181Z,5.20
2023-04-25T22:23:03.230Z,5.20
2023-04-25T22:25:31.887Z,5.10
2023-04-25T22:30:45.905Z,5.00
2023-04-25T22:33:15.336Z,4.90
2023-04-25T22:35:43.651Z,4.90
2023-04-25T22:38:11.662Z,4.90
2023-04-25T22:40:40.190Z,4.80
2023-04-25T22:43:08.163Z,4.80
2023-04-25T22:45:36.985Z,4.80
2023-04-25T22:48:05.706Z,4.80
2023-04-25T22:50:35.623Z,4.80
2023-04-25T22:53:05.169Z,4.70
2023-04-25T22:55:37.793Z,4.70
2023-04-25T23:01:11.421Z,4.70
2023-04-25T23:03:40.056Z,4.60
2023-04-25T23:06:09.797Z,4.60
2023-04-25T23:08:38.039Z,4.60
2023-04-25T23:11:07.891Z,4.60
2023-04-25T23:13:36.722Z,4.50
2023-04-25T23:16:08.989Z,4.50
2023-04-25T23:18:37.326Z,4.40
2023-04-25T23:21:07.573Z,4.40
2023-04-25T23:23:37.965Z,4.40
2023-04-25T23:26:09.799Z,4.40
2023-04-25T23:28:41.500Z,4.30
2023-04-25T23:31:11.846Z,4.30
2023-04-25T23:33:40.433Z,4.20
2023-04-25T23:36:09.316Z,4.20
2023-04-25T23:38:38.872Z,4.20
2023-04-25T23:41:06.925Z,4.20
2023-04-25T23:43:34.927Z,4.20
2023-04-25T23:46:03.126Z,4.20
2023-04-25T23:48:31.292Z,4.20
2023-04-25T23:51:00.814Z,4.20
2023-04-25T23:53:29.356Z,4.30
2023-04-25T23:55:58.739Z,4.30
2023-04-25T23:58:26.801Z,4.40
